sensor_id;sensor_type;location;lat;lon;timestamp;P1;durP1;ratioP1;P2;durP2;ratioP2
47161;SDS011;32921;53.256;8.198;2023-12-29T00:01:56;259.80;;;238.95;;
47161;SDS011;32921;53.256;8.198;2023-12-29T00:04:24;268.25;;;246.75;;
47161;SDS011;32921;53.256;8.198;2023-12-29T00:06:50;226.98;;;209.52;;
47161;SDS011;32921;53.256;8.198;2023-12-29T00:09:15;276.60;;;254.63;;
47161;SDS011;32921;53.256;8.198;2023-12-29T00:11:41;243.48;;;224.43;;
47161;SDS011;32921;53.256;8.198;2023-12-29T00:14:07;240.65;;;223.20;;
47161;SDS011;32921;53.256;8.198;2023-12-29T00:16:32;285.83;;;264.17;;
47161;SDS011;32921;53.256;8.198;2023-12-29T00:18:58;309.15;;;286.48;;
47161;SDS011;32921;53.256;8.198;2023-12-29T00:21:23;306.15;;;283.67;;
47161;SDS011;32921;53.256;8.198;2023-12-29T00:23:49;266.48;;;247.00;;
47161;SDS011;32921;53.256;8.198;2023-12-29T00:26:17;233.70;;;216.98;;
47161;SDS011;32921;53.256;8.198;2023-12-29T00:28:44;232.73;;;215.32;;
47161;SDS011;32921;53.256;8.198;2023-12-29T00:31:13;243.18;;;226.10;;
47161;SDS011;32921;53.256;8.198;2023-12-29T00:33:40;208.55;;;194.38;;
47161;SDS011;32921;53.256;8.198;2023-12-29T00:36:07;221.88;;;206.00;;
47161;SDS011;32921;53.256;8.198;2023-12-29T00:38:32;223.68;;;208.13;;
47161;SDS011;32921;53.256;8.198;2023-12-29T00:40:59;207.52;;;193.48;;
47161;SDS011;32921;53.256;8.198;2023-12-29T00:43:24;197.57;;;183.30;;
47161;SDS011;32921;53.256;8.198;2023-12-29T00:45:50;194.80;;;181.52;;
47161;SDS011;32921;53.256;8.198;2023-12-29T00:48:16;190.05;;;176.57;;
47161;SDS011;32921;53.256;8.198;2023-12-29T00:50:41;228.23;;;212.75;;
47161;SDS011;32921;53.256;8.198;2023-12-29T00:53:07;218.20;;;202.77;;
47161;SDS011;32921;53.256;8.198;2023-12-29T00:55:33;197.75;;;184.20;;
47161;SDS011;32921;53.256;8.198;2023-12-29T00:57:58;216.70;;;201.32;;
47161;SDS011;32921;53.256;8.198;2023-12-29T01:00:24;230.95;;;214.05;;
47161;SDS011;32921;53.256;8.198;2023-12-29T01:02:49;232.75;;;216.52;;
47161;SDS011;32921;53.256;8.198;2023-12-29T01:05:15;244.15;;;226.68;;
47161;SDS011;32921;53.256;8.198;2023-12-29T01:07:42;237.48;;;220.52;;
47161;SDS011;32921;53.256;8.198;2023-12-29T01:10:08;249.27;;;230.77;;
47161;SDS011;32921;53.256;8.198;2023-12-29T01:12:34;238.15;;;220.07;;
47161;SDS011;32921;53.256;8.198;2023-12-29T01:14:59;221.18;;;205.23;;
47161;SDS011;32921;53.256;8.198;2023-12-29T01:17:25;235.88;;;219.77;;
47161;SDS011;32921;53.256;8.198;2023-12-29T01:19:53;241.07;;;224.77;;
47161;SDS011;32921;53.256;8.198;2023-12-29T01:22:19;206.82;;;193.25;;
47161;SDS011;32921;53.256;8.198;2023-12-29T01:24:44;182.75;;;170.90;;
47161;SDS011;32921;53.256;8.198;2023-12-29T01:27:10;195.02;;;182.38;;
47161;SDS011;32921;53.256;8.198;2023-12-29T01:29:35;192.13;;;179.40;;
47161;SDS011;32921;53.256;8.198;2023-12-29T01:32:01;176.15;;;165.20;;
47161;SDS011;32921;53.256;8.198;2023-12-29T01:34:28;173.70;;;162.68;;
47161;SDS011;32921;53.256;8.198;2023-12-29T01:36:57;254.50;;;234.95;;
47161;SDS011;32921;53.256;8.198;2023-12-29T01:39:23;218.65;;;203.95;;
47161;SDS011;32921;53.256;8.198;2023-12-29T01:41:49;227.30;;;212.68;;
47161;SDS011;32921;53.256;8.198;2023-12-29T01:44:17;196.18;;;183.57;;
47161;SDS011;32921;53.256;8.198;2023-12-29T01:49:17;290.73;;;271.45;;
47161;SDS011;32921;53.256;8.198;2023-12-29T01:51:44;224.88;;;210.45;;
47161;SDS011;32921;53.256;8.198;2023-12-29T01:54:12;224.60;;;209.77;;
47161;SDS011;32921;53.256;8.198;2023-12-29T01:56:38;208.73;;;195.27;;
47161;SDS011;32921;53.256;8.198;2023-12-29T01:59:04;195.85;;;183.05;;
47161;SDS011;32921;53.256;8.198;2023-12-29T02:01:30;203.73;;;190.15;;
47161;SDS011;32921;53.256;8.198;2023-12-29T02:03:56;211.07;;;196.95;;
47161;SDS011;32921;53.256;8.198;2023-12-29T02:06:22;265.75;;;240.60;;
47161;SDS011;32921;53.256;8.198;2023-12-29T02:08:49;232.00;;;216.10;;
47161;SDS011;32921;53.256;8.198;2023-12-29T02:11:16;227.10;;;211.70;;
47161;SDS011;32921;53.256;8.198;2023-12-29T02:13:42;218.68;;;203.45;;
47161;SDS011;32921;53.256;8.198;2023-12-29T02:16:12;215.30;;;200.77;;
47161;SDS011;32921;53.256;8.198;2023-12-29T02:18:52;235.48;;;219.85;;
47161;SDS011;32921;53.256;8.198;2023-12-29T02:21:23;233.90;;;217.63;;
47161;SDS011;32921;53.256;8.198;2023-12-29T02:23:50;236.43;;;220.93;;
47161;SDS011;32921;53.256;8.198;2023-12-29T02:26:15;228.38;;;213.48;;
47161;SDS011;32921;53.256;8.198;2023-12-29T02:28:44;211.50;;;197.98;;
47161;SDS011;32921;53.256;8.198;2023-12-29T02:31:19;247.90;;;231.50;;
47161;SDS011;32921;53.256;8.198;2023-12-29T02:33:48;228.35;;;213.85;;
47161;SDS011;32921;53.256;8.198;2023-12-29T02:36:15;218.02;;;203.45;;
47161;SDS011;32921;53.256;8.198;2023-12-29T02:38:41;222.65;;;208.35;;
47161;SDS011;32921;53.256;8.198;2023-12-29T02:41:07;267.27;;;249.85;;
47161;SDS011;32921;53.256;8.198;2023-12-29T02:43:33;237.98;;;222.65;;
47161;SDS011;32921;53.256;8.198;2023-12-29T02:45:59;233.15;;;217.45;;
47161;SDS011;32921;53.256;8.198;2023-12-29T02:48:24;245.88;;;229.50;;
47161;SDS011;32921;53.256;8.198;2023-12-29T02:50:50;360.25;;;333.83;;
47161;SDS011;32921;53.256;8.198;2023-12-29T02:53:16;261.17;;;244.38;;
47161;SDS011;32921;53.256;8.198;2023-12-29T02:55:41;263.38;;;246.73;;
47161;SDS011;32921;53.256;8.198;2023-12-29T02:58:08;282.27;;;264.08;;
47161;SDS011;32921;53.256;8.198;2023-12-29T03:00:34;321.52;;;299.80;;
47161;SDS011;32921;53.256;8.198;2023-12-29T03:02:59;309.95;;;289.90;;
47161;SDS011;32921;53.256;8.198;2023-12-29T03:05:25;375.80;;;348.75;;
47161;SDS011;32921;53.256;8.198;2023-12-29T03:07:50;295.55;;;276.75;;
47161;SDS011;32921;53.256;8.198;2023-12-29T03:10:16;302.70;;;283.48;;
47161;SDS011;32921;53.256;8.198;2023-12-29T03:12:42;373.80;;;343.63;;
47161;SDS011;32921;53.256;8.198;2023-12-29T03:15:08;320.90;;;298.33;;
47161;SDS011;32921;53.256;8.198;2023-12-29T03:17:34;297.35;;;276.67;;
47161;SDS011;32921;53.256;8.198;2023-12-29T03:20:01;218.77;;;204.60;;
47161;SDS011;32921;53.256;8.198;2023-12-29T03:22:27;191.70;;;178.77;;
47161;SDS011;32921;53.256;8.198;2023-12-29T03:24:53;174.30;;;162.88;;
47161;SDS011;32921;53.256;8.198;2023-12-29T03:27:19;137.95;;;129.25;;
47161;SDS011;32921;53.256;8.198;2023-12-29T03:29:44;139.35;;;130.02;;
47161;SDS011;32921;53.256;8.198;2023-12-29T03:32:10;133.88;;;124.50;;
47161;SDS011;32921;53.256;8.198;2023-12-29T03:34:35;123.40;;;115.22;;
47161;SDS011;32921;53.256;8.198;2023-12-29T03:37:01;136.55;;;127.32;;
47161;SDS011;32921;53.256;8.198;2023-12-29T03:39:26;154.40;;;144.15;;
47161;SDS011;32921;53.256;8.198;2023-12-29T03:41:52;162.38;;;152.18;;
47161;SDS011;32921;53.256;8.198;2023-12-29T03:44:18;205.50;;;192.43;;
47161;SDS011;32921;53.256;8.198;2023-12-29T03:46:43;214.45;;;201.25;;
47161;SDS011;32921;53.256;8.198;2023-12-29T03:49:09;245.55;;;229.80;;
47161;SDS011;32921;53.256;8.198;2023-12-29T03:51:35;261.50;;;244.10;;
47161;SDS011;32921;53.256;8.198;2023-12-29T03:54:00;305.77;;;284.58;;
47161;SDS011;32921;53.256;8.198;2023-12-29T03:56:26;286.67;;;266.33;;
47161;SDS011;32921;53.256;8.198;2023-12-29T03:58:52;265.85;;;246.45;;
47161;SDS011;32921;53.256;8.198;2023-12-29T04:01:18;264.67;;;245.55;;
47161;SDS011;32921;53.256;8.198;2023-12-29T04:03:45;290.55;;;267.33;;
47161;SDS011;32921;53.256;8.198;2023-12-29T04:06:10;277.02;;;255.90;;
47161;SDS011;32921;53.256;8.198;2023-12-29T04:08:36;262.35;;;241.82;;
47161;SDS011;32921;53.256;8.198;2023-12-29T04:11:02;284.67;;;260.52;;
47161;SDS011;32921;53.256;8.198;2023-12-29T04:13:29;336.38;;;308.13;;
47161;SDS011;32921;53.256;8.198;2023-12-29T04:15:55;284.73;;;261.05;;
47161;SDS011;32921;53.256;8.198;2023-12-29T04:18:21;394.70;;;360.80;;
47161;SDS011;32921;53.256;8.198;2023-12-29T04:20:48;344.58;;;317.27;;
47161;SDS011;32921;53.256;8.198;2023-12-29T04:23:14;300.38;;;275.88;;
47161;SDS011;32921;53.256;8.198;2023-12-29T04:25:40;347.48;;;319.02;;
47161;SDS011;32921;53.256;8.198;2023-12-29T04:28:06;384.40;;;351.05;;
47161;SDS011;32921;53.256;8.198;2023-12-29T04:30:32;372.45;;;342.35;;
47161;SDS011;32921;53.256;8.198;2023-12-29T04:32:58;414.15;;;379.10;;
47161;SDS011;32921;53.256;8.198;2023-12-29T04:35:23;407.23;;;375.15;;
47161;SDS011;32921;53.256;8.198;2023-12-29T04:37:49;449.20;;;411.52;;
47161;SDS011;32921;53.256;8.198;2023-12-29T04:40:16;485.48;;;445.02;;
47161;SDS011;32921;53.256;8.198;2023-12-29T04:42:41;479.83;;;440.13;;
47161;SDS011;32921;53.256;8.198;2023-12-29T04:45:07;493.23;;;454.48;;
47161;SDS011;32921;53.256;8.198;2023-12-29T04:47:33;516.38;;;474.88;;
47161;SDS011;32921;53.256;8.198;2023-12-29T04:49:58;517.53;;;475.65;;
47161;SDS011;32921;53.256;8.198;2023-12-29T04:52:24;559.75;;;515.20;;
47161;SDS011;32921;53.256;8.198;2023-12-29T04:54:50;533.33;;;489.58;;
47161;SDS011;32921;53.256;8.198;2023-12-29T04:57:15;580.13;;;532.72;;
47161;SDS011;32921;53.256;8.198;2023-12-29T04:59:41;596.15;;;548.85;;
47161;SDS011;32921;53.256;8.198;2023-12-29T05:02:06;548.90;;;505.23;;
47161;SDS011;32921;53.256;8.198;2023-12-29T05:04:32;576.67;;;530.40;;
47161;SDS011;32921;53.256;8.198;2023-12-29T05:06:58;590.40;;;544.00;;
47161;SDS011;32921;53.256;8.198;2023-12-29T05:09:23;609.47;;;561.50;;
47161;SDS011;32921;53.256;8.198;2023-12-29T05:11:49;597.83;;;550.53;;
47161;SDS011;32921;53.256;8.198;2023-12-29T05:14:15;586.10;;;539.40;;
47161;SDS011;32921;53.256;8.198;2023-12-29T05:16:41;597.40;;;550.55;;
47161;SDS011;32921;53.256;8.198;2023-12-29T05:19:07;633.75;;;583.70;;
47161;SDS011;32921;53.256;8.198;2023-12-29T05:21:33;637.85;;;587.85;;
47161;SDS011;32921;53.256;8.198;2023-12-29T05:23:58;632.03;;;581.47;;
47161;SDS011;32921;53.256;8.198;2023-12-29T05:26:24;641.33;;;589.67;;
47161;SDS011;32921;53.256;8.198;2023-12-29T05:28:50;612.65;;;563.80;;
47161;SDS011;32921;53.256;8.198;2023-12-29T05:31:16;610.03;;;560.75;;
47161;SDS011;32921;53.256;8.198;2023-12-29T05:33:42;591.28;;;542.42;;
47161;SDS011;32921;53.256;8.198;2023-12-29T05:36:09;546.92;;;501.45;;
47161;SDS011;32921;53.256;8.198;2023-12-29T05:38:35;565.58;;;518.20;;
47161;SDS011;32921;53.256;8.198;2023-12-29T05:41:02;515.55;;;473.08;;
47161;SDS011;32921;53.256;8.198;2023-12-29T05:43:30;535.78;;;491.17;;
47161;SDS011;32921;53.256;8.198;2023-12-29T05:45:56;519.63;;;475.30;;
47161;SDS011;32921;53.256;8.198;2023-12-29T05:48:23;462.27;;;424.38;;
47161;SDS011;32921;53.256;8.198;2023-12-29T05:50:49;466.50;;;426.15;;
47161;SDS011;32921;53.256;8.198;2023-12-29T05:53:17;450.27;;;410.67;;
47161;SDS011;32921;53.256;8.198;2023-12-29T05:55:43;452.35;;;413.33;;
47161;SDS011;32921;53.256;8.198;2023-12-29T05:58:10;409.73;;;373.48;;
47161;SDS011;32921;53.256;8.198;2023-12-29T06:00:38;407.38;;;371.65;;
47161;SDS011;32921;53.256;8.198;2023-12-29T06:03:04;368.10;;;335.90;;
47161;SDS011;32921;53.256;8.198;2023-12-29T06:05:30;380.70;;;347.92;;
47161;SDS011;32921;53.256;8.198;2023-12-29T06:07:56;384.10;;;350.15;;
47161;SDS011;32921;53.256;8.198;2023-12-29T06:10:22;303.65;;;277.13;;
47161;SDS011;32921;53.256;8.198;2023-12-29T06:12:48;310.27;;;284.25;;
47161;SDS011;32921;53.256;8.198;2023-12-29T06:15:13;283.90;;;259.25;;
47161;SDS011;32921;53.256;8.198;2023-12-29T06:17:39;292.85;;;268.88;;
47161;SDS011;32921;53.256;8.198;2023-12-29T06:20:06;248.13;;;226.93;;
47161;SDS011;32921;53.256;8.198;2023-12-29T06:22:32;248.70;;;228.80;;
47161;SDS011;32921;53.256;8.198;2023-12-29T06:24:58;215.85;;;199.52;;
47161;SDS011;32921;53.256;8.198;2023-12-29T06:27:24;264.63;;;245.52;;
47161;SDS011;32921;53.256;8.198;2023-12-29T06:29:50;249.60;;;231.38;;
47161;SDS011;32921;53.256;8.198;2023-12-29T06:32:16;232.50;;;216.55;;
47161;SDS011;32921;53.256;8.198;2023-12-29T06:34:41;217.27;;;202.38;;
47161;SDS011;32921;53.256;8.198;2023-12-29T06:37:07;209.10;;;194.57;;
47161;SDS011;32921;53.256;8.198;2023-12-29T06:39:33;250.48;;;232.27;;
47161;SDS011;32921;53.256;8.198;2023-12-29T06:41:58;209.02;;;194.48;;
47161;SDS011;32921;53.256;8.198;2023-12-29T06:44:24;276.45;;;258.42;;
47161;SDS011;32921;53.256;8.198;2023-12-29T06:46:49;284.90;;;266.45;;
47161;SDS011;32921;53.256;8.198;2023-12-29T06:49:15;360.10;;;333.52;;
47161;SDS011;32921;53.256;8.198;2023-12-29T06:51:41;410.48;;;381.17;;
47161;SDS011;32921;53.256;8.198;2023-12-29T06:54:07;404.05;;;374.95;;
47161;SDS011;32921;53.256;8.198;2023-12-29T06:56:32;404.95;;;375.15;;
47161;SDS011;32921;53.256;8.198;2023-12-29T06:58:58;443.33;;;410.40;;
47161;SDS011;32921;53.256;8.198;2023-12-29T07:01:24;442.90;;;407.90;;
47161;SDS011;32921;53.256;8.198;2023-12-29T07:03:49;473.63;;;436.40;;
47161;SDS011;32921;53.256;8.198;2023-12-29T07:06:15;514.78;;;475.40;;
47161;SDS011;32921;53.256;8.198;2023-12-29T07:08:41;490.42;;;451.77;;
47161;SDS011;32921;53.256;8.198;2023-12-29T07:11:10;514.67;;;473.25;;
47161;SDS011;32921;53.256;8.198;2023-12-29T07:13:36;529.97;;;486.40;;
47161;SDS011;32921;53.256;8.198;2023-12-29T07:16:02;488.38;;;450.38;;
47161;SDS011;32921;53.256;8.198;2023-12-29T07:18:28;533.90;;;492.25;;
47161;SDS011;32921;53.256;8.198;2023-12-29T07:20:54;511.73;;;472.27;;
47161;SDS011;32921;53.256;8.198;2023-12-29T07:23:20;489.55;;;451.17;;
47161;SDS011;32921;53.256;8.198;2023-12-29T07:25:46;472.90;;;436.73;;
47161;SDS011;32921;53.256;8.198;2023-12-29T07:28:12;462.77;;;426.95;;
47161;SDS011;32921;53.256;8.198;2023-12-29T07:30:38;453.02;;;419.02;;
47161;SDS011;32921;53.256;8.198;2023-12-29T07:33:03;441.10;;;407.83;;
47161;SDS011;32921;53.256;8.198;2023-12-29T07:35:29;459.23;;;424.80;;
47161;SDS011;32921;53.256;8.198;2023-12-29T07:37:55;427.63;;;395.83;;
47161;SDS011;32921;53.256;8.198;2023-12-29T07:40:21;443.42;;;409.77;;
47161;SDS011;32921;53.256;8.198;2023-12-29T07:42:47;440.95;;;408.40;;
47161;SDS011;32921;53.256;8.198;2023-12-29T07:45:15;424.10;;;392.10;;
47161;SDS011;32921;53.256;8.198;2023-12-29T07:47:41;399.42;;;370.33;;
47161;SDS011;32921;53.256;8.198;2023-12-29T07:50:06;397.40;;;368.25;;
47161;SDS011;32921;53.256;8.198;2023-12-29T07:52:32;437.13;;;404.00;;
47161;SDS011;32921;53.256;8.198;2023-12-29T07:54:58;414.08;;;383.33;;
47161;SDS011;32921;53.256;8.198;2023-12-29T07:57:24;435.65;;;403.13;;
47161;SDS011;32921;53.256;8.198;2023-12-29T07:59:49;446.77;;;412.45;;
47161;SDS011;32921;53.256;8.198;2023-12-29T08:02:15;420.10;;;387.65;;
47161;SDS011;32921;53.256;8.198;2023-12-29T08:04:41;378.33;;;348.85;;
47161;SDS011;32921;53.256;8.198;2023-12-29T08:07:07;362.33;;;335.02;;
47161;SDS011;32921;53.256;8.198;2023-12-29T08:09:33;347.30;;;322.13;;
47161;SDS011;32921;53.256;8.198;2023-12-29T08:11:58;318.73;;;295.95;;
47161;SDS011;32921;53.256;8.198;2023-12-29T08:14:25;420.83;;;388.80;;
47161;SDS011;32921;53.256;8.198;2023-12-29T08:16:51;496.85;;;455.60;;
47161;SDS011;32921;53.256;8.198;2023-12-29T08:19:16;601.60;;;548.85;;
47161;SDS011;32921;53.256;8.198;2023-12-29T08:21:42;523.85;;;479.75;;
47161;SDS011;32921;53.256;8.198;2023-12-29T08:24:08;442.02;;;408.10;;
47161;SDS011;32921;53.256;8.198;2023-12-29T08:26:33;450.02;;;414.95;;
47161;SDS011;32921;53.256;8.198;2023-12-29T08:28:59;723.47;;;655.13;;
47161;SDS011;32921;53.256;8.198;2023-12-29T08:31:24;1153.22;;;817.28;;
47161;SDS011;32921;53.256;8.198;2023-12-29T08:33:52;604.90;;;555.00;;
47161;SDS011;32921;53.256;8.198;2023-12-29T08:36:18;508.13;;;467.80;;
47161;SDS011;32921;53.256;8.198;2023-12-29T08:38:44;452.65;;;418.75;;
47161;SDS011;32921;53.256;8.198;2023-12-29T08:41:13;370.73;;;345.17;;
47161;SDS011;32921;53.256;8.198;2023-12-29T08:43:39;304.08;;;283.90;;
47161;SDS011;32921;53.256;8.198;2023-12-29T08:46:05;232.35;;;217.05;;
47161;SDS011;32921;53.256;8.198;2023-12-29T08:48:30;159.20;;;148.60;;
47161;SDS011;32921;53.256;8.198;2023-12-29T08:50:56;131.18;;;122.20;;
47161;SDS011;32921;53.256;8.198;2023-12-29T08:53:21;187.68;;;174.20;;
47161;SDS011;32921;53.256;8.198;2023-12-29T08:55:47;209.20;;;193.63;;
47161;SDS011;32921;53.256;8.198;2023-12-29T08:58:13;236.15;;;219.02;;
47161;SDS011;32921;53.256;8.198;2023-12-29T09:00:38;271.38;;;250.38;;
47161;SDS011;32921;53.256;8.198;2023-12-29T09:03:04;297.90;;;273.60;;
47161;SDS011;32921;53.256;8.198;2023-12-29T09:05:30;343.30;;;314.77;;
47161;SDS011;32921;53.256;8.198;2023-12-29T09:07:55;285.63;;;263.85;;
47161;SDS011;32921;53.256;8.198;2023-12-29T09:10:21;287.15;;;264.25;;
47161;SDS011;32921;53.256;8.198;2023-12-29T09:12:47;269.95;;;247.60;;
47161;SDS011;32921;53.256;8.198;2023-12-29T09:15:14;305.85;;;280.80;;
47161;SDS011;32921;53.256;8.198;2023-12-29T09:17:40;281.25;;;258.52;;
47161;SDS011;32921;53.256;8.198;2023-12-29T09:20:06;314.65;;;289.67;;
47161;SDS011;32921;53.256;8.198;2023-12-29T09:22:33;299.85;;;275.27;;
47161;SDS011;32921;53.256;8.198;2023-12-29T09:24:58;327.27;;;300.80;;
47161;SDS011;32921;53.256;8.198;2023-12-29T09:27:24;268.90;;;246.00;;
47161;SDS011;32921;53.256;8.198;2023-12-29T09:29:50;295.20;;;272.50;;
47161;SDS011;32921;53.256;8.198;2023-12-29T09:32:16;295.75;;;273.55;;
47161;SDS011;32921;53.256;8.198;2023-12-29T09:34:41;304.73;;;281.55;;
47161;SDS011;32921;53.256;8.198;2023-12-29T09:37:07;264.73;;;245.98;;
47161;SDS011;32921;53.256;8.198;2023-12-29T09:39:33;273.70;;;254.52;;
47161;SDS011;32921;53.256;8.198;2023-12-29T09:41:59;249.43;;;232.07;;
47161;SDS011;32921;53.256;8.198;2023-12-29T09:44:28;262.30;;;243.63;;
47161;SDS011;32921;53.256;8.198;2023-12-29T09:46:57;238.30;;;221.75;;
47161;SDS011;32921;53.256;8.198;2023-12-29T09:49:30;248.90;;;231.13;;
47161;SDS011;32921;53.256;8.198;2023-12-29T09:52:03;205.63;;;191.82;;
47161;SDS011;32921;53.256;8.198;2023-12-29T09:54:30;260.55;;;242.25;;
47161;SDS011;32921;53.256;8.198;2023-12-29T09:56:57;243.25;;;227.07;;
47161;SDS011;32921;53.256;8.198;2023-12-29T09:59:24;247.93;;;231.65;;
47161;SDS011;32921;53.256;8.198;2023-12-29T10:01:51;246.65;;;230.40;;
47161;SDS011;32921;53.256;8.198;2023-12-29T10:04:18;265.27;;;247.65;;
47161;SDS011;32921;53.256;8.198;2023-12-29T10:06:44;283.85;;;264.80;;
47161;SDS011;32921;53.256;8.198;2023-12-29T10:09:12;281.20;;;260.73;;
47161;SDS011;32921;53.256;8.198;2023-12-29T10:11:41;258.13;;;240.98;;
47161;SDS011;32921;53.256;8.198;2023-12-29T10:17:09;258.13;;;241.48;;
47161;SDS011;32921;53.256;8.198;2023-12-29T10:19:50;268.25;;;250.15;;
47161;SDS011;32921;53.256;8.198;2023-12-29T10:22:50;253.60;;;236.80;;
47161;SDS011;32921;53.256;8.198;2023-12-29T10:25:22;231.38;;;215.70;;
47161;SDS011;32921;53.256;8.198;2023-12-29T10:27:48;243.65;;;226.60;;
47161;SDS011;32921;53.256;8.198;2023-12-29T10:30:14;237.90;;;220.82;;
47161;SDS011;32921;53.256;8.198;2023-12-29T10:32:40;234.30;;;217.77;;
47161;SDS011;32921;53.256;8.198;2023-12-29T10:35:09;257.15;;;238.35;;
47161;SDS011;32921;53.256;8.198;2023-12-29T10:37:35;274.33;;;254.02;;
47161;SDS011;32921;53.256;8.198;2023-12-29T10:40:02;258.35;;;239.70;;
47161;SDS011;32921;53.256;8.198;2023-12-29T10:42:27;274.17;;;254.15;;
47161;SDS011;32921;53.256;8.198;2023-12-29T10:45:04;268.83;;;249.82;;
47161;SDS011;32921;53.256;8.198;2023-12-29T10:47:32;250.77;;;232.77;;
47161;SDS011;32921;53.256;8.198;2023-12-29T10:49:58;285.92;;;265.98;;
47161;SDS011;32921;53.256;8.198;2023-12-29T10:52:25;283.52;;;264.23;;
47161;SDS011;32921;53.256;8.198;2023-12-29T10:54:54;293.05;;;272.75;;
47161;SDS011;32921;53.256;8.198;2023-12-29T10:57:32;291.60;;;272.20;;
47161;SDS011;32921;53.256;8.198;2023-12-29T10:59:58;293.60;;;274.77;;
47161;SDS011;32921;53.256;8.198;2023-12-29T11:02:27;338.48;;;315.98;;
47161;SDS011;32921;53.256;8.198;2023-12-29T11:05:06;323.30;;;301.83;;
47161;SDS011;32921;53.256;8.198;2023-12-29T11:10:06;301.95;;;281.98;;
47161;SDS011;32921;53.256;8.198;2023-12-29T11:12:33;319.52;;;298.35;;
47161;SDS011;32921;53.256;8.198;2023-12-29T11:15:01;322.75;;;301.33;;
47161;SDS011;32921;53.256;8.198;2023-12-29T11:17:29;331.27;;;309.48;;
47161;SDS011;32921;53.256;8.198;2023-12-29T11:19:57;302.35;;;282.33;;
47161;SDS011;32921;53.256;8.198;2023-12-29T11:22:28;297.80;;;278.40;;
47161;SDS011;32921;53.256;8.198;2023-12-29T11:24:55;295.58;;;276.23;;
47161;SDS011;32921;53.256;8.198;2023-12-29T11:27:25;302.02;;;281.08;;
47161;SDS011;32921;53.256;8.198;2023-12-29T11:29:54;301.80;;;282.30;;
47161;SDS011;32921;53.256;8.198;2023-12-29T11:32:22;294.27;;;274.95;;
47161;SDS011;32921;53.256;8.198;2023-12-29T11:35:02;299.58;;;279.95;;
47161;SDS011;32921;53.256;8.198;2023-12-29T11:40:48;345.17;;;322.23;;
47161;SDS011;32921;53.256;8.198;2023-12-29T11:43:19;353.10;;;329.55;;
47161;SDS011;32921;53.256;8.198;2023-12-29T11:45:45;323.15;;;301.98;;
47161;SDS011;32921;53.256;8.198;2023-12-29T11:48:11;306.65;;;286.58;;
47161;SDS011;32921;53.256;8.198;2023-12-29T11:50:38;300.52;;;281.17;;
47161;SDS011;32921;53.256;8.198;2023-12-29T11:53:07;300.70;;;281.38;;
47161;SDS011;32921;53.256;8.198;2023-12-29T11:55:36;324.85;;;303.40;;
47161;SDS011;32921;53.256;8.198;2023-12-29T11:58:03;328.70;;;307.27;;
47161;SDS011;32921;53.256;8.198;2023-12-29T12:00:47;318.27;;;296.77;;
47161;SDS011;32921;53.256;8.198;2023-12-29T12:03:17;416.73;;;385.65;;
47161;SDS011;32921;53.256;8.198;2023-12-29T12:05:50;397.45;;;368.33;;
47161;SDS011;32921;53.256;8.198;2023-12-29T12:08:29;844.75;;;713.72;;
47161;SDS011;32921;53.256;8.198;2023-12-29T12:10:55;447.35;;;413.63;;
47161;SDS011;32921;53.256;8.198;2023-12-29T12:16:09;373.58;;;347.17;;
47161;SDS011;32921;53.256;8.198;2023-12-29T12:18:55;700.78;;;635.13;;
47161;SDS011;32921;53.256;8.198;2023-12-29T12:21:21;287.30;;;268.63;;
47161;SDS011;32921;53.256;8.198;2023-12-29T12:23:48;264.27;;;246.57;;
47161;SDS011;32921;53.256;8.198;2023-12-29T12:26:15;247.50;;;230.23;;
47161;SDS011;32921;53.256;8.198;2023-12-29T12:28:44;212.10;;;196.95;;
47161;SDS011;32921;53.256;8.198;2023-12-29T12:31:12;213.45;;;197.73;;
47161;SDS011;32921;53.256;8.198;2023-12-29T12:33:38;215.57;;;199.70;;
47161;SDS011;32921;53.256;8.198;2023-12-29T12:36:03;224.65;;;207.60;;
47161;SDS011;32921;53.256;8.198;2023-12-29T12:38:29;214.32;;;198.18;;
47161;SDS011;32921;53.256;8.198;2023-12-29T12:41:08;268.38;;;243.70;;
47161;SDS011;32921;53.256;8.198;2023-12-29T12:43:36;257.63;;;236.25;;
47161;SDS011;32921;53.256;8.198;2023-12-29T12:46:06;270.80;;;249.82;;
47161;SDS011;32921;53.256;8.198;2023-12-29T12:48:36;322.17;;;297.15;;
47161;SDS011;32921;53.256;8.198;2023-12-29T12:51:10;267.23;;;248.43;;
47161;SDS011;32921;53.256;8.198;2023-12-29T12:53:40;293.10;;;272.23;;
47161;SDS011;32921;53.256;8.198;2023-12-29T12:56:07;276.55;;;258.45;;
47161;SDS011;32921;53.256;8.198;2023-12-29T12:58:33;289.20;;;270.20;;
47161;SDS011;32921;53.256;8.198;2023-12-29T13:00:59;338.42;;;315.48;;
47161;SDS011;32921;53.256;8.198;2023-12-29T13:03:25;350.42;;;326.30;;
47161;SDS011;32921;53.256;8.198;2023-12-29T13:05:51;380.63;;;353.30;;
47161;SDS011;32921;53.256;8.198;2023-12-29T13:08:18;392.75;;;363.48;;
47161;SDS011;32921;53.256;8.198;2023-12-29T13:10:43;360.17;;;333.05;;
47161;SDS011;32921;53.256;8.198;2023-12-29T13:13:10;420.38;;;388.27;;
47161;SDS011;32921;53.256;8.198;2023-12-29T13:15:49;437.98;;;404.20;;
47161;SDS011;32921;53.256;8.198;2023-12-29T13:18:15;478.48;;;441.40;;
47161;SDS011;32921;53.256;8.198;2023-12-29T13:20:45;441.27;;;406.48;;
47161;SDS011;32921;53.256;8.198;2023-12-29T13:23:12;414.02;;;381.88;;
47161;SDS011;32921;53.256;8.198;2023-12-29T13:25:39;441.13;;;407.88;;
47161;SDS011;32921;53.256;8.198;2023-12-29T13:28:07;475.65;;;439.08;;
47161;SDS011;32921;53.256;8.198;2023-12-29T13:30:34;429.42;;;398.05;;
47161;SDS011;32921;53.256;8.198;2023-12-29T13:33:08;457.42;;;422.63;;
47161;SDS011;32921;53.256;8.198;2023-12-29T13:35:39;454.75;;;420.58;;
47161;SDS011;32921;53.256;8.198;2023-12-29T13:38:21;416.15;;;386.60;;
47161;SDS011;32921;53.256;8.198;2023-12-29T13:41:02;455.58;;;421.70;;
47161;SDS011;32921;53.256;8.198;2023-12-29T13:43:36;421.75;;;390.67;;
47161;SDS011;32921;53.256;8.198;2023-12-29T13:46:07;411.80;;;380.60;;
47161;SDS011;32921;53.256;8.198;2023-12-29T13:48:34;398.17;;;368.67;;
47161;SDS011;32921;53.256;8.198;2023-12-29T13:51:00;405.27;;;375.13;;
47161;SDS011;32921;53.256;8.198;2023-12-29T13:53:26;416.30;;;385.48;;
47161;SDS011;32921;53.256;8.198;2023-12-29T13:55:52;416.83;;;386.35;;
47161;SDS011;32921;53.256;8.198;2023-12-29T13:58:17;433.98;;;401.67;;
47161;SDS011;32921;53.256;8.198;2023-12-29T14:00:43;403.17;;;373.70;;
47161;SDS011;32921;53.256;8.198;2023-12-29T14:03:15;404.73;;;374.77;;
47161;SDS011;32921;53.256;8.198;2023-12-29T14:05:51;442.80;;;409.58;;
47161;SDS011;32921;53.256;8.198;2023-12-29T14:08:24;444.75;;;410.15;;
47161;SDS011;32921;53.256;8.198;2023-12-29T14:10:59;454.77;;;419.73;;